Tianjin Tientsin, Tianjin

7:19 PM CST on March 28, 2015 (GMT +0800)
JingFu, Tianjing | | Change Station
CLOSE
Current Station
Personal Weather Station
Location: 天津, 天津市
Elevation: 13 ft
Nearby Weather Stations

Elev 13 ft 39.18 °N, 117.04 °E | Updated 2 seconds ago

Clear
Clear
68.5 °F
Feels Like 68.5 °F
N
0.0
Wind Variable Wind from SW
Gusts 0.0 mph

Today
High -- | Low -- °F
--% Chance of Precip.
Yesterday
High -- | Low -- °F
Precip. -- in
6:03 AM 6:30 PM
First Quarter, 61% visible
Pressure 29.92 in
Visibility 2.2 miles
Clouds
Dew Point 34 °F
Humidity 28%
Rainfall 0.00 in
Snow Depth Not available.
UV 0.0 out of 12
Pollen Not available.
Air Quality Not available.
Flu Activity Not available.
METAR ZBTJ 281100Z 09003MPS 040V130 3500 DU NSC 20/01 Q1013 NOSIG

More Conditions Fewer Conditions

Pressure 29.92 in
Visibility 2.2 miles
Clouds
Dew Point 34 °F
Humidity 28%
Rainfall 0.00 in
Snow Depth Not available.
UV 0.0 out of 12
Pollen Not available.
Air Quality Not available.
Flu Activity Not available.
METAR ZBTJ 281100Z 09003MPS 040V130 3500 DU NSC 20/01 Q1013 NOSIG

More Conditions Fewer Conditions

10-Day Weather Forecast

Almanac

Astronomy

Mar. 28, 2015 Rise Set
Actual Time
Civil Twilight
Nautical Twilight
Astronomical Twilight
Moon
Length of Visible Light
Length of Day
Tomorrow will be .
, % of the Moon is Illuminated

Today's Extremes

Country Highs Country Lows

Community

WunderPhotos

Upload Photos

1,808,956 photos uploaded!

WunderBlogs® & News

Nearby

Air Quality

  Air Quality AQ Index Pollutant
Not available.

Snow Depth

Station Depth Elevation

Earthquake Activity

City Distance Mag. Time & Date
Minimum magnitude displayed is 2.5.

Coastal Water Temperatures

Place Temperature

Stations

Nearby Weather Stations

Station Location Temp. Windchill Dew Point Humidity Wind Precip. Elev Updated Type